createdAt,value
2019-04-20T00:01:50.487Z,11.80
2019-04-20T00:04:26.962Z,11.80
2019-04-20T00:06:56.451Z,11.70
2019-04-20T00:09:32.729Z,11.60
2019-04-20T00:12:08.882Z,11.50
2019-04-20T00:14:37.128Z,11.50
2019-04-20T00:17:07.443Z,11.60
2019-04-20T00:19:44.041Z,11.60
2019-04-20T00:22:16.899Z,11.50
2019-04-20T00:25:10.536Z,11.50
2019-04-20T00:28:16.326Z,11.40
2019-04-20T00:30:50.253Z,11.30
2019-04-20T00:33:23.701Z,11.40
2019-04-20T00:35:38.044Z,11.40
2019-04-20T00:38:09.828Z,11.40
2019-04-20T00:40:41.309Z,11.40
2019-04-20T00:43:19.631Z,11.30
2019-04-20T00:45:51.634Z,11.20
2019-04-20T00:48:31.561Z,11.20
2019-04-20T00:51:06.924Z,11.10
2019-04-20T00:53:31.402Z,11.00
2019-04-20T00:55:59.091Z,10.90
2019-04-20T00:58:46.492Z,10.90
2019-04-20T01:01:24.808Z,10.80
2019-04-20T01:03:49.449Z,10.70
2019-04-20T01:06:46.317Z,10.70
2019-04-20T01:09:26.642Z,10.60
2019-04-20T01:11:58.568Z,10.60
2019-04-20T01:14:39.746Z,10.60
2019-04-20T01:17:11.779Z,10.60
2019-04-20T01:19:36.384Z,10.70
2019-04-20T01:22:13.579Z,10.60
2019-04-20T01:24:45.408Z,10.70
2019-04-20T01:27:27.379Z,10.70
2019-04-20T01:29:51.547Z,10.60
2019-04-20T01:32:29.918Z,10.50
2019-04-20T01:35:05.907Z,10.40
2019-04-20T01:37:36.526Z,10.30
2019-04-20T01:40:02.644Z,10.30
2019-04-20T01:42:32.158Z,10.20
2019-04-20T01:45:12.664Z,10.20
2019-04-20T01:47:42.228Z,10.10
2019-04-20T01:50:16.234Z,10.10
2019-04-20T01:52:54.002Z,10.10
2019-04-20T01:55:49.449Z,10.00
2019-04-20T01:58:23.967Z,10.00
2019-04-20T02:00:49.136Z,9.90
2019-04-20T02:03:40.275Z,9.90
2019-04-20T02:06:13.625Z,9.90
2019-04-20T02:08:42.246Z,10.00
2019-04-20T02:11:21.148Z,9.90
2019-04-20T02:13:53.577Z,9.80
2019-04-20T02:16:28.875Z,9.80
2019-04-20T02:19:09.339Z,9.80
2019-04-20T02:21:45.306Z,9.80
2019-04-20T02:24:04.050Z,9.80
2019-04-20T02:26:34.651Z,9.70
2019-04-20T02:29:31.908Z,9.70
2019-04-20T02:32:18.181Z,9.60
2019-04-20T02:34:55.417Z,9.60
2019-04-20T02:40:12.358Z,9.40
2019-04-20T02:42:44.861Z,9.30
2019-04-20T02:45:18.242Z,9.20
2019-04-20T02:47:45.700Z,9.10
2019-04-20T02:52:56.333Z,9.00
2019-04-20T02:55:24.123Z,9.00
2019-04-20T02:58:01.931Z,9.00
2019-04-20T03:00:26.224Z,9.00
2019-04-20T03:02:47.332Z,9.00
2019-04-20T03:05:16.367Z,9.10
2019-04-20T03:07:57.611Z,9.00
2019-04-20T03:10:42.971Z,9.00
2019-04-20T03:13:08.017Z,9.00
2019-04-20T03:15:38.178Z,8.90
2019-04-20T03:18:17.916Z,9.00
2019-04-20T03:20:48.864Z,8.90
2019-04-20T03:23:30.072Z,8.90
2019-04-20T03:26:05.456Z,8.80
2019-04-20T03:29:05.603Z,8.70
2019-04-20T03:32:15.461Z,8.70
2019-04-20T03:36:59.456Z,8.80
2019-04-20T03:39:29.890Z,8.80
2019-04-20T03:41:48.299Z,8.80
2019-04-20T03:44:20.906Z,8.80
2019-04-20T03:46:57.227Z,8.80
2019-04-20T03:49:48.207Z,8.70
2019-04-20T03:52:27.825Z,8.60
2019-04-20T03:55:26.145Z,8.60
2019-04-20T03:58:02.831Z,8.50
2019-04-20T04:00:54.555Z,8.40
2019-04-20T04:03:45.953Z,8.30
2019-04-20T04:06:07.713Z,8.40
2019-04-20T04:08:34.450Z,8.40
2019-04-20T04:11:18.246Z,8.50
2019-04-20T04:13:33.653Z,8.50
2019-04-20T04:16:10.209Z,8.50
2019-04-20T04:18:42.506Z,8.50
2019-04-20T04:21:17.177Z,8.60
2019-04-20T04:23:59.949Z,8.60
2019-04-20T04:26:34.943Z,8.60
2019-04-20T04:29:18.139Z,8.50
2019-04-20T04:31:50.904Z,8.50
2019-04-20T04:34:12.475Z,8.40
2019-04-20T04:36:50.100Z,8.40
2019-04-20T04:39:27.968Z,8.40
2019-04-20T04:42:05.183Z,8.40
2019-04-20T04:44:20.202Z,8.40
2019-04-20T04:46:50.383Z,8.40
2019-04-20T04:49:24.069Z,8.50
2019-04-20T04:51:55.303Z,8.50
2019-04-20T04:54:27.946Z,8.50
2019-04-20T04:56:54.347Z,8.50
2019-04-20T04:59:25.792Z,8.40
2019-04-20T05:01:58.768Z,8.40
2019-04-20T05:05:10.298Z,8.40
2019-04-20T05:07:45.128Z,8.40
2019-04-20T05:10:03.437Z,8.40
2019-04-20T05:12:37.008Z,8.40
2019-04-20T05:15:21.233Z,8.50
2019-04-20T05:18:01.787Z,8.50
2019-04-20T05:20:42.619Z,8.50
2019-04-20T05:23:28.075Z,8.60
2019-04-20T05:26:25.605Z,8.60
2019-04-20T05:28:51.743Z,8.60
2019-04-20T05:31:15.479Z,8.70
2019-04-20T05:34:14.363Z,8.70
2019-04-20T05:36:41.237Z,8.80
2019-04-20T05:39:24.263Z,8.90
2019-04-20T05:41:48.586Z,9.00
2019-04-20T05:44:22.090Z,9.10
2019-04-20T05:47:01.025Z,9.30
2019-04-20T05:49:29.766Z,9.40
2019-04-20T05:52:17.484Z,9.60
2019-04-20T05:54:39.137Z,9.70
2019-04-20T05:57:23.587Z,9.80
2019-04-20T05:59:51.162Z,9.90
2019-04-20T06:02:22.905Z,10.00
2019-04-20T06:05:10.093Z,10.10
2019-04-20T06:07:26.844Z,10.20
2019-04-20T06:10:00.276Z,10.30
2019-04-20T06:12:49.876Z,10.50
2019-04-20T06:15:19.717Z,10.60
2019-04-20T06:18:02.475Z,10.90
2019-04-20T06:20:46.337Z,11.60
2019-04-20T06:23:41.344Z,12.10
2019-04-20T06:26:24.673Z,12.30
2019-04-20T06:28:30.053Z,12.30
2019-04-20T06:31:03.784Z,12.40
2019-04-20T06:36:53.673Z,12.60
2019-04-20T06:39:38.584Z,12.60
2019-04-20T06:49:48.078Z,18.80
2019-04-20T06:52:46.295Z,20.40
2019-04-20T06:55:19.789Z,21.20
2019-04-20T06:57:56.332Z,22.10
2019-04-20T07:00:22.892Z,23.20
2019-04-20T07:03:00.261Z,23.60
2019-04-20T07:05:43.717Z,22.90
2019-04-20T07:08:29.042Z,23.80
2019-04-20T07:10:51.938Z,24.20
2019-04-20T07:13:13.116Z,23.70
2019-04-20T07:15:49.713Z,24.40
2019-04-20T07:18:31.202Z,24.70
2019-04-20T07:21:12.645Z,24.70
2019-04-20T07:23:51.313Z,24.30
2019-04-20T07:26:22.671Z,25.70
2019-04-20T07:28:52.571Z,25.40
2019-04-20T07:31:23.264Z,25.80
2019-04-20T07:33:56.935Z,26.10
2019-04-20T07:36:40.281Z,26.00
2019-04-20T07:39:07.514Z,25.90
2019-04-20T07:41:50.223Z,25.70
2019-04-20T07:44:11.827Z,26.90
2019-04-20T07:46:54.779Z,26.80
2019-04-20T07:49:18.373Z,26.40
2019-04-20T07:51:33.926Z,26.40
2019-04-20T07:54:28.888Z,27.80
2019-04-20T07:56:54.901Z,27.70
2019-04-20T07:59:21.503Z,27.10
2019-04-20T08:02:23.504Z,27.70
2019-04-20T08:05:03.187Z,27.80
2019-04-20T08:07:17.453Z,28.60
2019-04-20T08:09:55.683Z,28.90
2019-04-20T08:12:51.440Z,28.40
2019-04-20T08:15:32.434Z,27.60
2019-04-20T08:18:06.307Z,27.50
2019-04-20T08:20:27.928Z,27.30
2019-04-20T08:23:06.225Z,27.90
2019-04-20T08:25:27.562Z,28.80
2019-04-20T08:28:28.698Z,27.90
2019-04-20T08:31:28.429Z,28.80
2019-04-20T08:36:49.116Z,28.80
2019-04-20T08:39:30.376Z,28.60
2019-04-20T08:41:53.456Z,29.20
2019-04-20T08:44:46.635Z,30.20
2019-04-20T08:47:03.867Z,30.00
2019-04-20T08:49:34.822Z,30.60
2019-04-20T08:52:13.027Z,30.10
2019-04-20T08:54:31.292Z,30.10
2019-04-20T08:56:54.770Z,30.20
2019-04-20T08:59:21.579Z,29.90
2019-04-20T09:01:53.532Z,30.10
2019-04-20T09:04:37.117Z,32.20
2019-04-20T09:07:05.481Z,32.00
2019-04-20T09:09:53.269Z,31.40
2019-04-20T09:12:19.161Z,31.20
2019-04-20T09:14:40.231Z,32.40
2019-04-20T09:17:45.252Z,31.50
2019-04-20T09:20:17.740Z,31.70
2019-04-20T09:23:02.331Z,31.10
2019-04-20T09:28:17.545Z,30.00
2019-04-20T09:30:52.213Z,29.40
2019-04-20T09:34:03.044Z,30.60
2019-04-20T09:36:51.627Z,31.00
2019-04-20T09:39:27.163Z,31.60
2019-04-20T09:42:22.075Z,31.20
2019-04-20T09:44:58.950Z,31.50
2019-04-20T09:47:36.826Z,31.40
2019-04-20T09:50:18.365Z,31.30
2019-04-20T09:52:51.708Z,31.80
2019-04-20T09:55:21.836Z,32.30
2019-04-20T09:57:59.113Z,32.30
2019-04-20T10:00:32.175Z,31.60
2019-04-20T10:02:48.473Z,31.80
2019-04-20T10:05:20.019Z,31.60
2019-04-20T10:07:56.052Z,31.00
2019-04-20T10:10:31.595Z,31.20
2019-04-20T10:12:58.365Z,31.40
2019-04-20T10:15:31.372Z,31.00
2019-04-20T10:18:03.742Z,30.90
2019-04-20T10:20:38.190Z,30.80
2019-04-20T10:23:08.753Z,31.30
2019-04-20T10:25:40.410Z,31.60
2019-04-20T10:28:11.908Z,31.00
2019-04-20T10:30:44.405Z,30.40
2019-04-20T10:33:15.902Z,30.20
2019-04-20T10:35:47.682Z,30.20
2019-04-20T10:38:25.667Z,30.70
2019-04-20T10:41:08.198Z,31.50
2019-04-20T10:43:30.418Z,31.40
2019-04-20T10:46:02.714Z,31.50
2019-04-20T10:48:41.547Z,31.50
2019-04-20T10:51:08.421Z,31.40
2019-04-20T10:53:40.354Z,31.30
2019-04-20T10:56:11.947Z,31.40
2019-04-20T10:58:43.375Z,30.90
2019-04-20T11:01:15.695Z,30.40
2019-04-20T11:03:47.242Z,30.60
2019-04-20T11:06:18.689Z,30.50
2019-04-20T11:08:50.782Z,30.60
2019-04-20T11:11:26.738Z,30.40
2019-04-20T11:13:55.390Z,30.30
2019-04-20T11:16:28.597Z,30.80
2019-04-20T11:19:01.027Z,30.40
2019-04-20T11:21:32.455Z,30.00
2019-04-20T11:24:04.587Z,29.50
2019-04-20T11:26:38.277Z,28.60
2019-04-20T11:29:10.440Z,27.90
2019-04-20T11:31:47.237Z,27.20
2019-04-20T11:34:21.963Z,27.00
2019-04-20T11:36:48.932Z,27.00
2019-04-20T11:39:20.933Z,26.70
2019-04-20T11:41:53.865Z,26.40
2019-04-20T11:44:26.928Z,26.50
2019-04-20T11:46:58.726Z,26.90
2019-04-20T11:49:31.323Z,27.10
2019-04-20T11:52:03.616Z,27.10
2019-04-20T11:54:34.907Z,27.20
2019-04-20T11:57:07.070Z,27.20
2019-04-20T11:59:39.119Z,27.10
2019-04-20T12:02:34.885Z,26.90
2019-04-20T12:05:17.347Z,26.90
2019-04-20T12:07:55.423Z,27.10
2019-04-20T12:10:28.283Z,27.40
2019-04-20T12:13:01.757Z,27.50
2019-04-20T12:15:35.646Z,27.30
2019-04-20T12:18:07.486Z,27.20
2019-04-20T12:20:40.746Z,27.10
2019-04-20T12:23:12.662Z,27.40
2019-04-20T12:25:44.603Z,26.90
2019-04-20T12:28:17.847Z,26.40
2019-04-20T12:30:49.183Z,26.50
2019-04-20T12:33:20.352Z,26.70
2019-04-20T12:35:52.223Z,26.80
2019-04-20T12:38:25.252Z,26.70
2019-04-20T12:40:58.127Z,26.90
2019-04-20T12:43:29.917Z,27.00
2019-04-20T12:46:23.449Z,26.90
2019-04-20T12:48:55.658Z,26.70
2019-04-20T12:51:33.533Z,26.50
2019-04-20T12:54:00.567Z,26.60
2019-04-20T12:56:32.776Z,26.60
2019-04-20T12:59:05.493Z,26.60
2019-04-20T13:01:37.418Z,26.90
2019-04-20T13:04:09.510Z,27.00
2019-04-20T13:06:41.035Z,26.90
2019-04-20T13:09:12.967Z,27.00
2019-04-20T13:12:05.467Z,27.10
2019-04-20T13:15:30.369Z,27.10
2019-04-20T13:18:03.249Z,26.70
2019-04-20T13:20:34.573Z,26.70
2019-04-20T13:23:08.007Z,26.80
2019-04-20T13:25:41.230Z,26.90
2019-04-20T13:28:14.783Z,27.00
2019-04-20T13:30:46.159Z,26.80
2019-04-20T13:33:17.657Z,26.70
2019-04-20T13:35:50.174Z,26.70
2019-04-20T13:38:22.469Z,26.60
2019-04-20T13:40:55.699Z,26.60
2019-04-20T13:43:27.975Z,26.60
2019-04-20T13:46:00.466Z,26.50
2019-04-20T13:48:33.031Z,26.30
2019-04-20T13:51:05.460Z,26.20
2019-04-20T13:53:37.233Z,26.10
2019-04-20T13:56:09.949Z,26.20
2019-04-20T13:58:58.781Z,26.20
2019-04-20T14:02:01.319Z,26.20
2019-04-20T14:04:38.932Z,26.20
2019-04-20T14:07:12.604Z,26.30
2019-04-20T14:09:43.701Z,26.50
2019-04-20T14:12:23.171Z,26.70
2019-04-20T14:14:48.976Z,26.80
2019-04-20T14:17:21.255Z,26.80
2019-04-20T14:19:53.039Z,26.90
2019-04-20T14:22:24.933Z,26.80
2019-04-20T14:24:57.328Z,26.70
2019-04-20T14:27:28.982Z,26.70
2019-04-20T14:30:01.382Z,26.70
2019-04-20T14:32:32.729Z,26.50
2019-04-20T14:35:05.005Z,26.50
2019-04-20T14:37:36.434Z,26.40
2019-04-20T14:40:08.393Z,26.30
2019-04-20T14:42:46.295Z,26.20
2019-04-20T14:45:14.362Z,26.10
2019-04-20T14:47:46.092Z,26.00
2019-04-20T14:50:20.088Z,25.90
2019-04-20T14:52:51.552Z,26.10
2019-04-20T14:55:24.102Z,26.20
2019-04-20T14:57:57.726Z,26.30
2019-04-20T15:00:52.660Z,26.30
2019-04-20T15:03:51.995Z,26.50
2019-04-20T15:06:19.940Z,26.40
2019-04-20T15:08:52.299Z,26.40
2019-04-20T15:11:24.984Z,26.30
2019-04-20T15:13:56.524Z,26.30
2019-04-20T15:16:28.737Z,26.30
2019-04-20T15:19:17.912Z,26.20
2019-04-20T15:21:51.394Z,26.30
2019-04-20T15:24:23.772Z,26.10
2019-04-20T15:26:56.327Z,26.00
2019-04-20T15:29:28.523Z,26.00
2019-04-20T15:31:59.970Z,26.10
2019-04-20T15:34:32.898Z,26.10
2019-04-20T15:37:05.454Z,26.10
2019-04-20T15:39:37.108Z,26.00
2019-04-20T15:42:09.527Z,26.10
2019-04-20T15:44:41.411Z,26.10
2019-04-20T15:47:13.228Z,26.20
2019-04-20T15:49:46.119Z,26.20
2019-04-20T15:52:24.501Z,26.20
2019-04-20T15:54:51.790Z,26.10
2019-04-20T15:57:27.027Z,26.10
2019-04-20T15:59:56.279Z,26.10
2019-04-20T16:02:33.589Z,26.10
2019-04-20T16:05:33.735Z,26.10
2019-04-20T16:08:21.377Z,26.10
2019-04-20T16:10:53.280Z,25.90
2019-04-20T16:13:33.253Z,25.90
2019-04-20T16:15:58.092Z,25.80
2019-04-20T16:18:30.772Z,25.80
2019-04-20T16:21:07.917Z,25.70
2019-04-20T16:24:06.736Z,25.60
2019-04-20T16:27:07.575Z,25.60
2019-04-20T16:29:39.741Z,25.40
2019-04-20T16:32:12.263Z,25.40
2019-04-20T16:34:44.518Z,25.40
2019-04-20T16:37:16.919Z,25.30
2019-04-20T16:39:48.451Z,25.30
2019-04-20T16:42:20.303Z,25.20
2019-04-20T16:44:51.555Z,25.10
2019-04-20T16:47:24.043Z,25.10
2019-04-20T16:49:55.421Z,25.10
2019-04-20T16:52:27.069Z,25.00
2019-04-20T16:54:59.667Z,24.90
2019-04-20T16:57:31.883Z,24.90
2019-04-20T17:00:03.330Z,24.80
2019-04-20T17:02:34.579Z,24.70
2019-04-20T17:05:07.138Z,24.70
2019-04-20T17:07:42.845Z,24.70
2019-04-20T17:10:16.130Z,24.60
2019-04-20T17:12:48.070Z,24.40
2019-04-20T17:15:21.454Z,24.30
2019-04-20T17:17:55.015Z,24.30
2019-04-20T17:20:27.130Z,24.20
2019-04-20T17:23:00.348Z,24.00
2019-04-20T17:25:32.586Z,23.90
2019-04-20T17:28:35.328Z,23.90
2019-04-20T17:31:25.197Z,23.80
2019-04-20T17:34:11.478Z,23.70
2019-04-20T17:36:36.649Z,23.60
2019-04-20T17:39:11.544Z,23.50
2019-04-20T17:42:00.519Z,23.40
2019-04-20T17:44:29.036Z,23.30
2019-04-20T17:46:59.016Z,23.30
2019-04-20T17:49:34.206Z,23.20
2019-04-20T17:52:21.893Z,23.10
2019-04-20T17:54:53.914Z,22.90
2019-04-20T17:57:25.532Z,22.80
2019-04-20T18:00:13.770Z,22.70
2019-04-20T18:03:04.546Z,22.60
2019-04-20T18:05:39.496Z,22.50
2019-04-20T18:08:15.483Z,22.50
2019-04-20T18:10:44.350Z,22.40
2019-04-20T18:13:09.366Z,22.40
2019-04-20T18:15:49.064Z,22.30
2019-04-20T18:18:39.827Z,22.10
2019-04-20T18:21:16.902Z,21.90
2019-04-20T18:23:51.628Z,21.70
2019-04-20T18:26:45.389Z,21.60
2019-04-20T18:29:16.674Z,21.50
2019-04-20T18:31:37.626Z,21.40
2019-04-20T18:34:17.907Z,21.20
2019-04-20T18:36:47.608Z,21.10
2019-04-20T18:39:29.090Z,21.00
2019-04-20T18:41:57.242Z,20.90
2019-04-20T18:44:30.510Z,20.80
2019-04-20T18:47:18.201Z,20.60
2019-04-20T18:49:41.921Z,20.40
2019-04-20T18:52:04.272Z,20.30
2019-04-20T18:54:41.760Z,20.30
2019-04-20T18:57:14.384Z,20.30
2019-04-20T18:59:47.811Z,20.20
2019-04-20T19:02:20.028Z,20.10
2019-04-20T19:04:48.171Z,20.00
2019-04-20T19:07:19.867Z,19.90
2019-04-20T19:09:55.222Z,19.80
2019-04-20T19:12:38.909Z,19.80
2019-04-20T19:15:30.424Z,19.80
2019-04-20T19:17:58.992Z,19.70
2019-04-20T19:20:26.893Z,19.80
2019-04-20T19:22:58.013Z,19.70
2019-04-20T19:25:33.188Z,19.60
2019-04-20T19:28:04.672Z,19.60
2019-04-20T19:30:46.153Z,19.50
2019-04-20T19:33:26.082Z,19.40
2019-04-20T19:35:51.903Z,19.40
2019-04-20T19:38:20.689Z,19.40
2019-04-20T19:40:58.314Z,19.30
2019-04-20T19:43:28.800Z,19.20
2019-04-20T19:46:37.905Z,19.20
2019-04-20T19:48:39.582Z,19.20
2019-04-20T19:51:23.969Z,19.10
2019-04-20T19:53:55.056Z,19.10
2019-04-20T19:56:26.314Z,19.00
2019-04-20T19:58:57.522Z,18.90
2019-04-20T20:01:13.639Z,19.00
2019-04-20T20:03:50.327Z,18.90
2019-04-20T20:06:28.268Z,18.90
2019-04-20T20:08:57.411Z,18.80
2019-04-20T20:11:30.446Z,18.80
2019-04-20T20:13:59.162Z,18.70
2019-04-20T20:16:50.480Z,18.70
2019-04-20T20:19:12.206Z,18.70
2019-04-20T20:21:51.488Z,18.60
2019-04-20T20:24:12.507Z,18.60
2019-04-20T20:26:51.045Z,18.50
2019-04-20T20:29:26.222Z,18.50
2019-04-20T20:32:07.346Z,18.50
2019-04-20T20:34:31.032Z,18.40
2019-04-20T20:37:00.501Z,18.40
2019-04-20T20:39:33.008Z,18.30
2019-04-20T20:42:16.733Z,18.20
2019-04-20T20:44:45.485Z,18.10
2019-04-20T20:47:31.322Z,18.00
2019-04-20T20:50:08.284Z,18.00
2019-04-20T20:52:31.873Z,17.90
2019-04-20T20:54:59.076Z,17.80
2019-04-20T20:57:26.573Z,17.80
2019-04-20T21:00:04.651Z,17.70
2019-04-20T21:02:42.125Z,17.70
2019-04-20T21:05:03.857Z,17.60
2019-04-20T21:07:36.517Z,17.50
2019-04-20T21:10:08.699Z,17.50
2019-04-20T21:12:46.521Z,17.40
2019-04-20T21:15:18.637Z,17.40
2019-04-20T21:18:12.212Z,17.40
2019-04-20T21:20:41.014Z,17.40
2019-04-20T21:23:07.317Z,17.40
2019-04-20T21:25:37.678Z,17.40
2019-04-20T21:28:05.215Z,17.40
2019-04-20T21:30:41.571Z,17.40
2019-04-20T21:33:11.601Z,17.30
2019-04-20T21:35:47.063Z,17.30
2019-04-20T21:38:18.545Z,17.20
2019-04-20T21:41:02.207Z,17.20
2019-04-20T21:43:32.397Z,17.10
2019-04-20T21:46:01.789Z,17.10
2019-04-20T21:48:43.889Z,17.10
2019-04-20T21:51:18.975Z,17.00
2019-04-20T21:53:37.792Z,17.00
2019-04-20T21:56:10.159Z,16.90
2019-04-20T21:58:48.307Z,16.70
2019-04-20T22:01:26.316Z,16.50
2019-04-20T22:03:50.233Z,16.40
2019-04-20T22:06:22.877Z,16.10
2019-04-20T22:08:57.811Z,15.90
2019-04-20T22:11:29.521Z,15.70
2019-04-20T22:14:08.313Z,15.50
2019-04-20T22:16:40.973Z,15.40
2019-04-20T22:19:22.343Z,15.30
2019-04-20T22:21:53.357Z,15.20
2019-04-20T22:24:28.700Z,15.00
2019-04-20T22:26:56.106Z,14.90
2019-04-20T22:29:21.403Z,14.80
2019-04-20T22:32:02.700Z,14.70
2019-04-20T22:34:28.074Z,14.60
2019-04-20T22:36:59.912Z,14.60
2019-04-20T22:39:41.463Z,14.50
2019-04-20T22:42:12.390Z,14.40
2019-04-20T22:44:41.367Z,14.40
2019-04-20T22:47:19.824Z,14.30
2019-04-20T22:50:03.556Z,14.20
2019-04-20T22:52:34.777Z,14.00
2019-04-20T22:55:16.126Z,14.00
2019-04-20T22:57:43.314Z,13.80
2019-04-20T23:00:04.753Z,13.70
2019-04-20T23:02:31.569Z,13.60
2019-04-20T23:05:03.033Z,13.50
2019-04-20T23:07:34.739Z,13.40
2019-04-20T23:10:08.768Z,13.30
2019-04-20T23:12:45.720Z,13.20
2019-04-20T23:15:14.420Z,13.20
2019-04-20T23:17:48.647Z,13.20
2019-04-20T23:20:26.365Z,13.10
2019-04-20T23:22:53.071Z,13.10
2019-04-20T23:25:25.053Z,13.00
2019-04-20T23:28:00.289Z,12.90
2019-04-20T23:30:34.038Z,12.90
2019-04-20T23:33:04.278Z,12.90
2019-04-20T23:35:37.505Z,12.90
2019-04-20T23:38:15.664Z,12.90
2019-04-20T23:40:43.734Z,12.90
2019-04-20T23:43:26.921Z,12.80
2019-04-20T23:46:29.353Z,12.80
2019-04-20T23:49:34.261Z,12.70
2019-04-20T23:52:28.858Z,12.60
2019-04-20T23:54:37.586Z,12.50
2019-04-20T23:57:09.338Z,12.50
2019-04-20T23:59:43.163Z,12.40
